sensor_id;sensor_type;location;lat;lon;timestamp;P1;durP1;ratioP1;P2;durP2;ratioP2
82635;SDS011;72317;37.280;-121.948;2023-08-31T00:00:49;35.65;;;32.05;;
82635;SDS011;72317;37.280;-121.948;2023-08-31T00:03:18;35.55;;;31.83;;
82635;SDS011;72317;37.280;-121.948;2023-08-31T00:05:44;35.65;;;31.95;;
82635;SDS011;72317;37.280;-121.948;2023-08-31T00:08:18;37.00;;;32.10;;
82635;SDS011;72317;37.280;-121.948;2023-08-31T00:10:54;36.08;;;32.22;;
82635;SDS011;72317;37.280;-121.948;2023-08-31T00:13:24;35.83;;;31.92;;
82635;SDS011;72317;37.280;-121.948;2023-08-31T00:15:55;34.92;;;31.38;;
82635;SDS011;72317;37.280;-121.948;2023-08-31T00:18:22;34.72;;;31.00;;
82635;SDS011;72317;37.280;-121.948;2023-08-31T00:20:50;34.70;;;31.20;;
82635;SDS011;72317;37.280;-121.948;2023-08-31T00:23:16;35.70;;;31.90;;
82635;SDS011;72317;37.280;-121.948;2023-08-31T00:25:46;35.42;;;31.63;;
82635;SDS011;72317;37.280;-121.948;2023-08-31T00:28:13;36.13;;;32.30;;
82635;SDS011;72317;37.280;-121.948;2023-08-31T00:30:43;36.25;;;32.42;;
82635;SDS011;72317;37.280;-121.948;2023-08-31T00:33:11;36.33;;;32.58;;
82635;SDS011;72317;37.280;-121.948;2023-08-31T00:35:37;36.05;;;32.15;;
82635;SDS011;72317;37.280;-121.948;2023-08-31T00:38:13;37.47;;;31.85;;
82635;SDS011;72317;37.280;-121.948;2023-08-31T00:40:41;34.75;;;31.20;;
82635;SDS011;72317;37.280;-121.948;2023-08-31T00:43:10;40.05;;;33.78;;
82635;SDS011;72317;37.280;-121.948;2023-08-31T00:45:37;36.95;;;33.15;;
82635;SDS011;72317;37.280;-121.948;2023-08-31T00:48:05;36.58;;;32.75;;
82635;SDS011;72317;37.280;-121.948;2023-08-31T00:50:34;38.10;;;34.05;;
82635;SDS011;72317;37.280;-121.948;2023-08-31T00:53:00;36.30;;;32.70;;
82635;SDS011;72317;37.280;-121.948;2023-08-31T00:55:28;36.00;;;32.47;;
82635;SDS011;72317;37.280;-121.948;2023-08-31T00:57:55;37.85;;;34.05;;
82635;SDS011;72317;37.280;-121.948;2023-08-31T01:00:23;37.67;;;32.67;;
82635;SDS011;72317;37.280;-121.948;2023-08-31T01:03:01;37.78;;;34.00;;
82635;SDS011;72317;37.280;-121.948;2023-08-31T01:08:29;36.85;;;32.92;;
82635;SDS011;72317;37.280;-121.948;2023-08-31T01:14:24;36.90;;;33.00;;
82635;SDS011;72317;37.280;-121.948;2023-08-31T01:16:56;36.80;;;32.90;;
82635;SDS011;72317;37.280;-121.948;2023-08-31T01:19:38;37.22;;;33.22;;
82635;SDS011;72317;37.280;-121.948;2023-08-31T01:22:11;36.70;;;33.00;;
82635;SDS011;72317;37.280;-121.948;2023-08-31T01:25:00;39.05;;;35.03;;
82635;SDS011;72317;37.280;-121.948;2023-08-31T01:27:30;36.05;;;32.35;;
82635;SDS011;72317;37.280;-121.948;2023-08-31T01:29:57;37.03;;;33.00;;
82635;SDS011;72317;37.280;-121.948;2023-08-31T01:32:23;38.20;;;34.17;;
82635;SDS011;72317;37.280;-121.948;2023-08-31T01:34:52;37.55;;;33.47;;
82635;SDS011;72317;37.280;-121.948;2023-08-31T01:37:24;38.08;;;34.15;;
82635;SDS011;72317;37.280;-121.948;2023-08-31T01:43:01;36.72;;;32.72;;
82635;SDS011;72317;37.280;-121.948;2023-08-31T01:45:28;38.47;;;34.50;;
82635;SDS011;72317;37.280;-121.948;2023-08-31T01:47:59;38.05;;;33.00;;
82635;SDS011;72317;37.280;-121.948;2023-08-31T01:50:25;39.15;;;35.08;;
82635;SDS011;72317;37.280;-121.948;2023-08-31T01:52:56;37.53;;;33.65;;
82635;SDS011;72317;37.280;-121.948;2023-08-31T01:55:24;37.83;;;33.88;;
82635;SDS011;72317;37.280;-121.948;2023-08-31T01:57:50;37.17;;;33.35;;
82635;SDS011;72317;37.280;-121.948;2023-08-31T02:00:21;37.45;;;33.53;;
82635;SDS011;72317;37.280;-121.948;2023-08-31T02:02:47;37.83;;;33.72;;
82635;SDS011;72317;37.280;-121.948;2023-08-31T02:05:14;38.33;;;34.30;;
82635;SDS011;72317;37.280;-121.948;2023-08-31T02:07:41;39.22;;;35.05;;
82635;SDS011;72317;37.280;-121.948;2023-08-31T02:10:13;36.72;;;33.05;;
82635;SDS011;72317;37.280;-121.948;2023-08-31T02:12:48;39.92;;;35.53;;
82635;SDS011;72317;37.280;-121.948;2023-08-31T02:15:17;39.40;;;34.35;;
82635;SDS011;72317;37.280;-121.948;2023-08-31T02:17:43;40.40;;;36.08;;
82635;SDS011;72317;37.280;-121.948;2023-08-31T02:20:10;40.75;;;36.45;;
82635;SDS011;72317;37.280;-121.948;2023-08-31T02:22:36;39.83;;;35.55;;
82635;SDS011;72317;37.280;-121.948;2023-08-31T02:25:06;40.40;;;36.05;;
82635;SDS011;72317;37.280;-121.948;2023-08-31T02:27:33;39.85;;;35.55;;
82635;SDS011;72317;37.280;-121.948;2023-08-31T02:29:59;40.30;;;36.20;;
82635;SDS011;72317;37.280;-121.948;2023-08-31T02:32:26;42.25;;;37.78;;
82635;SDS011;72317;37.280;-121.948;2023-08-31T02:34:52;43.38;;;38.67;;
82635;SDS011;72317;37.280;-121.948;2023-08-31T02:37:21;44.28;;;39.67;;
82635;SDS011;72317;37.280;-121.948;2023-08-31T02:39:49;43.90;;;39.22;;
82635;SDS011;72317;37.280;-121.948;2023-08-31T02:42:25;44.55;;;40.00;;
82635;SDS011;72317;37.280;-121.948;2023-08-31T02:44:55;45.63;;;40.78;;
82635;SDS011;72317;37.280;-121.948;2023-08-31T02:47:21;46.30;;;41.55;;
82635;SDS011;72317;37.280;-121.948;2023-08-31T02:49:47;46.60;;;41.80;;
82635;SDS011;72317;37.280;-121.948;2023-08-31T02:52:17;46.85;;;41.88;;
82635;SDS011;72317;37.280;-121.948;2023-08-31T02:54:45;46.45;;;41.58;;
82635;SDS011;72317;37.280;-121.948;2023-08-31T02:57:11;47.30;;;42.45;;
82635;SDS011;72317;37.280;-121.948;2023-08-31T02:59:37;46.25;;;41.50;;
82635;SDS011;72317;37.280;-121.948;2023-08-31T03:02:04;47.22;;;42.53;;
82635;SDS011;72317;37.280;-121.948;2023-08-31T03:04:30;47.47;;;42.72;;
82635;SDS011;72317;37.280;-121.948;2023-08-31T03:06:56;47.10;;;42.15;;
82635;SDS011;72317;37.280;-121.948;2023-08-31T03:09:23;47.45;;;42.55;;
82635;SDS011;72317;37.280;-121.948;2023-08-31T03:11:49;47.72;;;42.88;;
82635;SDS011;72317;37.280;-121.948;2023-08-31T03:14:15;47.35;;;42.40;;
82635;SDS011;72317;37.280;-121.948;2023-08-31T03:16:41;47.55;;;42.72;;
82635;SDS011;72317;37.280;-121.948;2023-08-31T03:19:07;47.90;;;43.03;;
82635;SDS011;72317;37.280;-121.948;2023-08-31T03:21:39;51.33;;;46.03;;
82635;SDS011;72317;37.280;-121.948;2023-08-31T03:24:06;50.50;;;45.08;;
82635;SDS011;72317;37.280;-121.948;2023-08-31T03:26:34;49.60;;;44.20;;
82635;SDS011;72317;37.280;-121.948;2023-08-31T03:29:00;50.17;;;44.65;;
82635;SDS011;72317;37.280;-121.948;2023-08-31T03:31:26;50.50;;;45.03;;
82635;SDS011;72317;37.280;-121.948;2023-08-31T03:33:52;50.80;;;45.35;;
82635;SDS011;72317;37.280;-121.948;2023-08-31T03:36:19;51.30;;;45.70;;
82635;SDS011;72317;37.280;-121.948;2023-08-31T03:38:45;50.35;;;44.88;;
82635;SDS011;72317;37.280;-121.948;2023-08-31T03:41:11;50.63;;;45.25;;
82635;SDS011;72317;37.280;-121.948;2023-08-31T03:43:38;52.63;;;46.97;;
82635;SDS011;72317;37.280;-121.948;2023-08-31T03:46:04;54.30;;;47.00;;
82635;SDS011;72317;37.280;-121.948;2023-08-31T03:48:30;52.25;;;46.65;;
82635;SDS011;72317;37.280;-121.948;2023-08-31T03:50:56;50.05;;;44.92;;
82635;SDS011;72317;37.280;-121.948;2023-08-31T03:53:22;52.55;;;46.70;;
82635;SDS011;72317;37.280;-121.948;2023-08-31T03:55:49;51.22;;;45.65;;
82635;SDS011;72317;37.280;-121.948;2023-08-31T03:58:15;51.17;;;45.90;;
82635;SDS011;72317;37.280;-121.948;2023-08-31T04:00:42;52.97;;;47.28;;
82635;SDS011;72317;37.280;-121.948;2023-08-31T04:03:08;53.75;;;47.58;;
82635;SDS011;72317;37.280;-121.948;2023-08-31T04:05:35;53.85;;;47.95;;
82635;SDS011;72317;37.280;-121.948;2023-08-31T04:08:01;52.22;;;46.63;;
82635;SDS011;72317;37.280;-121.948;2023-08-31T04:10:28;52.67;;;46.85;;
82635;SDS011;72317;37.280;-121.948;2023-08-31T04:12:57;52.50;;;46.85;;
82635;SDS011;72317;37.280;-121.948;2023-08-31T04:15:23;55.55;;;45.30;;
82635;SDS011;72317;37.280;-121.948;2023-08-31T04:17:49;52.97;;;47.28;;
82635;SDS011;72317;37.280;-121.948;2023-08-31T04:20:16;53.55;;;45.88;;
82635;SDS011;72317;37.280;-121.948;2023-08-31T04:22:42;52.10;;;46.47;;
82635;SDS011;72317;37.280;-121.948;2023-08-31T04:25:08;53.45;;;47.58;;
82635;SDS011;72317;37.280;-121.948;2023-08-31T04:27:34;56.58;;;49.53;;
82635;SDS011;72317;37.280;-121.948;2023-08-31T04:30:01;53.15;;;47.45;;
82635;SDS011;72317;37.280;-121.948;2023-08-31T04:32:28;52.05;;;45.83;;
82635;SDS011;72317;37.280;-121.948;2023-08-31T04:34:55;52.15;;;46.40;;
82635;SDS011;72317;37.280;-121.948;2023-08-31T04:37:21;55.45;;;46.55;;
82635;SDS011;72317;37.280;-121.948;2023-08-31T04:39:47;51.40;;;45.83;;
82635;SDS011;72317;37.280;-121.948;2023-08-31T04:42:14;52.05;;;46.50;;
82635;SDS011;72317;37.280;-121.948;2023-08-31T04:44:42;53.60;;;45.90;;
82635;SDS011;72317;37.280;-121.948;2023-08-31T04:47:08;49.75;;;44.40;;
82635;SDS011;72317;37.280;-121.948;2023-08-31T04:49:34;48.58;;;43.03;;
82635;SDS011;72317;37.280;-121.948;2023-08-31T04:52:00;44.28;;;39.13;;
82635;SDS011;72317;37.280;-121.948;2023-08-31T04:54:27;43.97;;;39.17;;
82635;SDS011;72317;37.280;-121.948;2023-08-31T04:56:53;43.50;;;37.83;;
82635;SDS011;72317;37.280;-121.948;2023-08-31T04:59:19;41.53;;;36.45;;
82635;SDS011;72317;37.280;-121.948;2023-08-31T05:01:45;41.83;;;37.28;;
82635;SDS011;72317;37.280;-121.948;2023-08-31T05:04:11;41.70;;;37.13;;
82635;SDS011;72317;37.280;-121.948;2023-08-31T05:06:38;40.95;;;36.00;;
82635;SDS011;72317;37.280;-121.948;2023-08-31T05:09:04;42.85;;;37.42;;
82635;SDS011;72317;37.280;-121.948;2023-08-31T05:11:31;41.42;;;37.03;;
82635;SDS011;72317;37.280;-121.948;2023-08-31T05:13:57;41.60;;;35.92;;
82635;SDS011;72317;37.280;-121.948;2023-08-31T05:16:23;43.50;;;37.85;;
82635;SDS011;72317;37.280;-121.948;2023-08-31T05:18:50;44.60;;;36.97;;
82635;SDS011;72317;37.280;-121.948;2023-08-31T05:21:16;40.53;;;36.22;;
82635;SDS011;72317;37.280;-121.948;2023-08-31T05:23:42;40.45;;;35.35;;
82635;SDS011;72317;37.280;-121.948;2023-08-31T05:26:08;40.47;;;36.08;;
82635;SDS011;72317;37.280;-121.948;2023-08-31T05:28:34;41.25;;;36.15;;
82635;SDS011;72317;37.280;-121.948;2023-08-31T05:31:01;39.80;;;35.60;;
82635;SDS011;72317;37.280;-121.948;2023-08-31T05:33:28;41.25;;;36.75;;
82635;SDS011;72317;37.280;-121.948;2023-08-31T05:36:00;40.35;;;35.95;;
82635;SDS011;72317;37.280;-121.948;2023-08-31T05:38:29;40.35;;;34.78;;
82635;SDS011;72317;37.280;-121.948;2023-08-31T05:41:02;40.33;;;35.67;;
82635;SDS011;72317;37.280;-121.948;2023-08-31T05:43:31;39.70;;;35.22;;
82635;SDS011;72317;37.280;-121.948;2023-08-31T05:45:57;40.15;;;35.88;;
82635;SDS011;72317;37.280;-121.948;2023-08-31T05:48:24;42.03;;;35.55;;
82635;SDS011;72317;37.280;-121.948;2023-08-31T05:50:50;39.53;;;34.78;;
82635;SDS011;72317;37.280;-121.948;2023-08-31T05:53:16;42.50;;;35.28;;
82635;SDS011;72317;37.280;-121.948;2023-08-31T05:55:42;38.17;;;34.08;;
82635;SDS011;72317;37.280;-121.948;2023-08-31T05:58:08;39.53;;;35.20;;
82635;SDS011;72317;37.280;-121.948;2023-08-31T06:00:34;37.60;;;33.47;;
82635;SDS011;72317;37.280;-121.948;2023-08-31T06:03:01;39.88;;;35.67;;
82635;SDS011;72317;37.280;-121.948;2023-08-31T06:05:29;40.00;;;34.75;;
82635;SDS011;72317;37.280;-121.948;2023-08-31T06:07:57;40.38;;;34.78;;
82635;SDS011;72317;37.280;-121.948;2023-08-31T06:10:23;39.72;;;35.17;;
82635;SDS011;72317;37.280;-121.948;2023-08-31T06:12:50;39.42;;;35.13;;
82635;SDS011;72317;37.280;-121.948;2023-08-31T06:15:16;40.88;;;34.65;;
82635;SDS011;72317;37.280;-121.948;2023-08-31T06:17:43;39.17;;;34.92;;
82635;SDS011;72317;37.280;-121.948;2023-08-31T06:20:09;40.03;;;34.63;;
82635;SDS011;72317;37.280;-121.948;2023-08-31T06:22:36;38.38;;;33.97;;
82635;SDS011;72317;37.280;-121.948;2023-08-31T06:25:02;40.50;;;34.38;;
82635;SDS011;72317;37.280;-121.948;2023-08-31T06:27:30;37.95;;;33.22;;
82635;SDS011;72317;37.280;-121.948;2023-08-31T06:29:56;40.13;;;33.55;;
82635;SDS011;72317;37.280;-121.948;2023-08-31T06:32:23;40.92;;;32.63;;
82635;SDS011;72317;37.280;-121.948;2023-08-31T06:34:49;37.60;;;33.42;;
82635;SDS011;72317;37.280;-121.948;2023-08-31T06:37:15;38.45;;;33.42;;
82635;SDS011;72317;37.280;-121.948;2023-08-31T06:39:41;37.35;;;31.55;;
82635;SDS011;72317;37.280;-121.948;2023-08-31T06:42:07;39.03;;;32.33;;
82635;SDS011;72317;37.280;-121.948;2023-08-31T06:44:33;36.28;;;31.98;;
82635;SDS011;72317;37.280;-121.948;2023-08-31T06:46:59;37.58;;;32.88;;
82635;SDS011;72317;37.280;-121.948;2023-08-31T06:49:26;39.22;;;31.17;;
82635;SDS011;72317;37.280;-121.948;2023-08-31T06:51:52;38.97;;;32.50;;
82635;SDS011;72317;37.280;-121.948;2023-08-31T06:54:19;37.65;;;33.15;;
82635;SDS011;72317;37.280;-121.948;2023-08-31T06:56:45;35.53;;;31.33;;
82635;SDS011;72317;37.280;-121.948;2023-08-31T06:59:11;36.65;;;32.38;;
82635;SDS011;72317;37.280;-121.948;2023-08-31T07:01:37;36.03;;;31.98;;
82635;SDS011;72317;37.280;-121.948;2023-08-31T07:04:04;37.75;;;32.83;;
82635;SDS011;72317;37.280;-121.948;2023-08-31T07:06:31;36.78;;;30.50;;
82635;SDS011;72317;37.280;-121.948;2023-08-31T07:08:59;37.00;;;31.85;;
82635;SDS011;72317;37.280;-121.948;2023-08-31T07:11:25;37.40;;;31.83;;
82635;SDS011;72317;37.280;-121.948;2023-08-31T07:13:52;38.58;;;32.40;;
82635;SDS011;72317;37.280;-121.948;2023-08-31T07:16:19;36.25;;;31.30;;
82635;SDS011;72317;37.280;-121.948;2023-08-31T07:18:45;38.08;;;32.83;;
82635;SDS011;72317;37.280;-121.948;2023-08-31T07:21:11;37.25;;;32.97;;
82635;SDS011;72317;37.280;-121.948;2023-08-31T07:23:37;37.13;;;32.72;;
82635;SDS011;72317;37.280;-121.948;2023-08-31T07:26:03;37.50;;;33.20;;
82635;SDS011;72317;37.280;-121.948;2023-08-31T07:28:30;39.03;;;32.47;;
82635;SDS011;72317;37.280;-121.948;2023-08-31T07:31:06;36.40;;;32.08;;
82635;SDS011;72317;37.280;-121.948;2023-08-31T07:33:33;35.65;;;31.27;;
82635;SDS011;72317;37.280;-121.948;2023-08-31T07:36:00;35.70;;;31.88;;
82635;SDS011;72317;37.280;-121.948;2023-08-31T07:38:29;37.30;;;31.70;;
82635;SDS011;72317;37.280;-121.948;2023-08-31T07:40:56;36.20;;;31.15;;
82635;SDS011;72317;37.280;-121.948;2023-08-31T07:43:22;36.70;;;29.90;;
82635;SDS011;72317;37.280;-121.948;2023-08-31T07:45:48;35.85;;;30.20;;
82635;SDS011;72317;37.280;-121.948;2023-08-31T07:48:15;34.72;;;30.70;;
82635;SDS011;72317;37.280;-121.948;2023-08-31T07:50:41;39.13;;;33.28;;
82635;SDS011;72317;37.280;-121.948;2023-08-31T07:53:07;41.50;;;33.97;;
82635;SDS011;72317;37.280;-121.948;2023-08-31T07:55:34;37.20;;;33.17;;
82635;SDS011;72317;37.280;-121.948;2023-08-31T07:58:01;40.38;;;34.25;;
82635;SDS011;72317;37.280;-121.948;2023-08-31T08:00:27;39.90;;;34.28;;
82635;SDS011;72317;37.280;-121.948;2023-08-31T08:02:53;39.25;;;34.97;;
82635;SDS011;72317;37.280;-121.948;2023-08-31T08:05:19;39.30;;;34.33;;
82635;SDS011;72317;37.280;-121.948;2023-08-31T08:07:45;42.45;;;34.13;;
82635;SDS011;72317;37.280;-121.948;2023-08-31T08:10:12;36.88;;;32.63;;
82635;SDS011;72317;37.280;-121.948;2023-08-31T08:12:40;42.15;;;35.30;;
82635;SDS011;72317;37.280;-121.948;2023-08-31T08:15:11;39.55;;;34.17;;
82635;SDS011;72317;37.280;-121.948;2023-08-31T08:17:38;39.15;;;33.45;;
82635;SDS011;72317;37.280;-121.948;2023-08-31T08:20:05;40.75;;;34.25;;
82635;SDS011;72317;37.280;-121.948;2023-08-31T08:22:32;38.05;;;33.33;;
82635;SDS011;72317;37.280;-121.948;2023-08-31T08:24:59;40.13;;;34.65;;
82635;SDS011;72317;37.280;-121.948;2023-08-31T08:27:26;39.15;;;34.38;;
82635;SDS011;72317;37.280;-121.948;2023-08-31T08:29:52;40.67;;;35.00;;
82635;SDS011;72317;37.280;-121.948;2023-08-31T08:32:19;41.45;;;35.40;;
82635;SDS011;72317;37.280;-121.948;2023-08-31T08:34:45;40.78;;;34.15;;
82635;SDS011;72317;37.280;-121.948;2023-08-31T08:37:11;44.92;;;34.78;;
82635;SDS011;72317;37.280;-121.948;2023-08-31T08:39:37;40.83;;;35.13;;
82635;SDS011;72317;37.280;-121.948;2023-08-31T08:42:04;42.63;;;34.95;;
82635;SDS011;72317;37.280;-121.948;2023-08-31T08:44:33;36.65;;;32.75;;
82635;SDS011;72317;37.280;-121.948;2023-08-31T08:47:01;38.80;;;33.00;;
82635;SDS011;72317;37.280;-121.948;2023-08-31T08:49:30;38.45;;;34.08;;
82635;SDS011;72317;37.280;-121.948;2023-08-31T08:51:58;39.67;;;33.85;;
82635;SDS011;72317;37.280;-121.948;2023-08-31T08:54:25;41.20;;;34.10;;
82635;SDS011;72317;37.280;-121.948;2023-08-31T08:56:52;40.50;;;33.20;;
82635;SDS011;72317;37.280;-121.948;2023-08-31T08:59:18;38.50;;;33.88;;
82635;SDS011;72317;37.280;-121.948;2023-08-31T09:01:45;38.90;;;33.35;;
82635;SDS011;72317;37.280;-121.948;2023-08-31T09:04:11;40.72;;;34.70;;
82635;SDS011;72317;37.280;-121.948;2023-08-31T09:06:38;40.67;;;34.08;;
82635;SDS011;72317;37.280;-121.948;2023-08-31T09:09:04;42.35;;;34.20;;
82635;SDS011;72317;37.280;-121.948;2023-08-31T09:11:33;38.50;;;33.47;;
82635;SDS011;72317;37.280;-121.948;2023-08-31T09:14:13;39.72;;;33.35;;
82635;SDS011;72317;37.280;-121.948;2023-08-31T09:16:43;37.40;;;31.50;;
82635;SDS011;72317;37.280;-121.948;2023-08-31T09:19:18;38.47;;;31.95;;
82635;SDS011;72317;37.280;-121.948;2023-08-31T09:21:46;37.35;;;33.33;;
82635;SDS011;72317;37.280;-121.948;2023-08-31T09:24:13;37.95;;;32.53;;
82635;SDS011;72317;37.280;-121.948;2023-08-31T09:26:40;39.25;;;32.10;;
82635;SDS011;72317;37.280;-121.948;2023-08-31T09:29:24;36.45;;;32.50;;
82635;SDS011;72317;37.280;-121.948;2023-08-31T09:31:51;37.88;;;31.75;;
82635;SDS011;72317;37.280;-121.948;2023-08-31T09:34:17;38.92;;;33.05;;
82635;SDS011;72317;37.280;-121.948;2023-08-31T09:36:44;39.55;;;32.83;;
82635;SDS011;72317;37.280;-121.948;2023-08-31T09:39:10;37.53;;;32.58;;
82635;SDS011;72317;37.280;-121.948;2023-08-31T09:41:54;37.53;;;33.47;;
82635;SDS011;72317;37.280;-121.948;2023-08-31T09:44:21;38.38;;;33.20;;
82635;SDS011;72317;37.280;-121.948;2023-08-31T09:46:47;43.22;;;34.65;;
82635;SDS011;72317;37.280;-121.948;2023-08-31T09:49:15;40.58;;;33.05;;
82635;SDS011;72317;37.280;-121.948;2023-08-31T09:51:46;39.78;;;33.35;;
82635;SDS011;72317;37.280;-121.948;2023-08-31T09:54:15;39.63;;;34.20;;
82635;SDS011;72317;37.280;-121.948;2023-08-31T09:56:44;37.58;;;32.40;;
82635;SDS011;72317;37.280;-121.948;2023-08-31T09:59:13;42.03;;;34.75;;
82635;SDS011;72317;37.280;-121.948;2023-08-31T10:01:41;37.90;;;33.63;;
82635;SDS011;72317;37.280;-121.948;2023-08-31T10:04:08;41.63;;;34.67;;
82635;SDS011;72317;37.280;-121.948;2023-08-31T10:06:35;39.70;;;34.33;;
82635;SDS011;72317;37.280;-121.948;2023-08-31T10:09:04;38.05;;;33.38;;
82635;SDS011;72317;37.280;-121.948;2023-08-31T10:11:31;37.63;;;32.90;;
82635;SDS011;72317;37.280;-121.948;2023-08-31T10:13:59;37.17;;;30.92;;
82635;SDS011;72317;37.280;-121.948;2023-08-31T10:16:26;35.95;;;31.42;;
82635;SDS011;72317;37.280;-121.948;2023-08-31T10:18:55;40.67;;;32.65;;
82635;SDS011;72317;37.280;-121.948;2023-08-31T10:21:22;39.58;;;32.35;;
82635;SDS011;72317;37.280;-121.948;2023-08-31T10:23:49;40.00;;;31.35;;
82635;SDS011;72317;37.280;-121.948;2023-08-31T10:26:25;36.58;;;32.03;;
82635;SDS011;72317;37.280;-121.948;2023-08-31T10:28:57;39.30;;;32.33;;
82635;SDS011;72317;37.280;-121.948;2023-08-31T10:31:24;38.20;;;31.27;;
82635;SDS011;72317;37.280;-121.948;2023-08-31T10:34:01;37.60;;;30.85;;
82635;SDS011;72317;37.280;-121.948;2023-08-31T10:36:42;38.00;;;32.15;;
82635;SDS011;72317;37.280;-121.948;2023-08-31T10:39:11;36.60;;;31.02;;
82635;SDS011;72317;37.280;-121.948;2023-08-31T10:41:42;38.42;;;31.83;;
82635;SDS011;72317;37.280;-121.948;2023-08-31T10:44:21;34.33;;;30.60;;
82635;SDS011;72317;37.280;-121.948;2023-08-31T10:46:48;36.67;;;31.10;;
82635;SDS011;72317;37.280;-121.948;2023-08-31T10:49:16;38.15;;;31.15;;
82635;SDS011;72317;37.280;-121.948;2023-08-31T10:51:45;34.67;;;30.45;;
82635;SDS011;72317;37.280;-121.948;2023-08-31T10:56:54;35.10;;;31.30;;
82635;SDS011;72317;37.280;-121.948;2023-08-31T10:59:26;38.47;;;31.63;;
82635;SDS011;72317;37.280;-121.948;2023-08-31T11:02:06;36.67;;;30.67;;
82635;SDS011;72317;37.280;-121.948;2023-08-31T11:04:51;39.92;;;31.52;;
82635;SDS011;72317;37.280;-121.948;2023-08-31T11:07:19;37.50;;;31.95;;
82635;SDS011;72317;37.280;-121.948;2023-08-31T11:09:49;42.42;;;32.10;;
82635;SDS011;72317;37.280;-121.948;2023-08-31T11:12:15;37.00;;;32.60;;
82635;SDS011;72317;37.280;-121.948;2023-08-31T11:14:42;37.92;;;31.48;;
82635;SDS011;72317;37.280;-121.948;2023-08-31T11:17:08;37.90;;;30.38;;
82635;SDS011;72317;37.280;-121.948;2023-08-31T11:19:37;38.10;;;31.23;;
82635;SDS011;72317;37.280;-121.948;2023-08-31T11:22:04;37.97;;;29.90;;
82635;SDS011;72317;37.280;-121.948;2023-08-31T11:24:31;40.72;;;32.42;;
82635;SDS011;72317;37.280;-121.948;2023-08-31T11:26:58;39.08;;;30.15;;
82635;SDS011;72317;37.280;-121.948;2023-08-31T11:29:25;37.83;;;29.83;;
82635;SDS011;72317;37.280;-121.948;2023-08-31T11:31:53;39.53;;;31.02;;
82635;SDS011;72317;37.280;-121.948;2023-08-31T11:34:23;37.42;;;29.58;;
82635;SDS011;72317;37.280;-121.948;2023-08-31T11:36:49;39.83;;;30.80;;
82635;SDS011;72317;37.280;-121.948;2023-08-31T11:39:17;37.67;;;30.33;;
82635;SDS011;72317;37.280;-121.948;2023-08-31T11:41:43;39.80;;;30.85;;
82635;SDS011;72317;37.280;-121.948;2023-08-31T11:44:11;36.83;;;29.33;;
82635;SDS011;72317;37.280;-121.948;2023-08-31T11:46:39;38.85;;;29.98;;
82635;SDS011;72317;37.280;-121.948;2023-08-31T11:49:08;39.85;;;30.02;;
82635;SDS011;72317;37.280;-121.948;2023-08-31T11:51:35;36.10;;;30.00;;
82635;SDS011;72317;37.280;-121.948;2023-08-31T11:54:04;37.38;;;30.05;;
82635;SDS011;72317;37.280;-121.948;2023-08-31T11:56:43;41.25;;;30.08;;
82635;SDS011;72317;37.280;-121.948;2023-08-31T11:59:17;41.08;;;31.05;;
82635;SDS011;72317;37.280;-121.948;2023-08-31T12:01:47;36.63;;;28.80;;
82635;SDS011;72317;37.280;-121.948;2023-08-31T12:04:16;39.83;;;30.77;;
82635;SDS011;72317;37.280;-121.948;2023-08-31T12:06:51;42.42;;;30.45;;
82635;SDS011;72317;37.280;-121.948;2023-08-31T12:09:25;40.85;;;29.67;;
82635;SDS011;72317;37.280;-121.948;2023-08-31T12:11:53;39.60;;;29.75;;
82635;SDS011;72317;37.280;-121.948;2023-08-31T12:14:23;35.42;;;28.45;;
82635;SDS011;72317;37.280;-121.948;2023-08-31T12:16:50;35.05;;;28.40;;
82635;SDS011;72317;37.280;-121.948;2023-08-31T12:19:17;39.60;;;29.38;;
82635;SDS011;72317;37.280;-121.948;2023-08-31T12:21:45;39.10;;;29.30;;
82635;SDS011;72317;37.280;-121.948;2023-08-31T12:24:12;42.05;;;28.55;;
82635;SDS011;72317;37.280;-121.948;2023-08-31T12:26:40;38.45;;;28.85;;
82635;SDS011;72317;37.280;-121.948;2023-08-31T12:29:06;36.13;;;27.90;;
82635;SDS011;72317;37.280;-121.948;2023-08-31T12:31:33;39.80;;;28.67;;
82635;SDS011;72317;37.280;-121.948;2023-08-31T12:33:59;41.88;;;29.55;;
82635;SDS011;72317;37.280;-121.948;2023-08-31T12:36:25;40.15;;;28.10;;
82635;SDS011;72317;37.280;-121.948;2023-08-31T12:38:52;39.88;;;29.40;;
82635;SDS011;72317;37.280;-121.948;2023-08-31T12:41:18;37.72;;;28.15;;
82635;SDS011;72317;37.280;-121.948;2023-08-31T12:43:45;42.95;;;28.15;;
82635;SDS011;72317;37.280;-121.948;2023-08-31T12:46:11;39.55;;;28.52;;
82635;SDS011;72317;37.280;-121.948;2023-08-31T12:48:39;38.33;;;27.70;;
82635;SDS011;72317;37.280;-121.948;2023-08-31T12:51:06;39.35;;;28.05;;
82635;SDS011;72317;37.280;-121.948;2023-08-31T12:53:32;38.85;;;27.70;;
82635;SDS011;72317;37.280;-121.948;2023-08-31T12:56:02;38.85;;;28.55;;
82635;SDS011;72317;37.280;-121.948;2023-08-31T12:58:29;39.55;;;28.63;;
82635;SDS011;72317;37.280;-121.948;2023-08-31T13:00:57;39.03;;;27.58;;
82635;SDS011;72317;37.280;-121.948;2023-08-31T13:03:24;43.00;;;29.77;;
82635;SDS011;72317;37.280;-121.948;2023-08-31T13:05:51;44.22;;;28.33;;
82635;SDS011;72317;37.280;-121.948;2023-08-31T13:08:17;37.97;;;27.83;;
82635;SDS011;72317;37.280;-121.948;2023-08-31T13:10:43;43.10;;;28.52;;
82635;SDS011;72317;37.280;-121.948;2023-08-31T13:13:18;39.58;;;27.92;;
82635;SDS011;72317;37.280;-121.948;2023-08-31T13:15:47;46.03;;;27.98;;
82635;SDS011;72317;37.280;-121.948;2023-08-31T13:18:14;38.20;;;27.48;;
82635;SDS011;72317;37.280;-121.948;2023-08-31T13:20:41;38.17;;;27.70;;
82635;SDS011;72317;37.280;-121.948;2023-08-31T13:23:14;42.83;;;28.20;;
82635;SDS011;72317;37.280;-121.948;2023-08-31T13:25:40;39.92;;;27.25;;
82635;SDS011;72317;37.280;-121.948;2023-08-31T13:28:06;40.60;;;26.75;;
82635;SDS011;72317;37.280;-121.948;2023-08-31T13:30:32;41.53;;;27.77;;
82635;SDS011;72317;37.280;-121.948;2023-08-31T13:32:58;39.03;;;26.90;;
82635;SDS011;72317;37.280;-121.948;2023-08-31T13:35:24;40.63;;;26.15;;
82635;SDS011;72317;37.280;-121.948;2023-08-31T13:37:51;37.90;;;25.73;;
82635;SDS011;72317;37.280;-121.948;2023-08-31T13:40:18;41.75;;;26.15;;
82635;SDS011;72317;37.280;-121.948;2023-08-31T13:42:56;42.15;;;27.73;;
82635;SDS011;72317;37.280;-121.948;2023-08-31T13:45:30;41.90;;;26.10;;
82635;SDS011;72317;37.280;-121.948;2023-08-31T13:48:00;38.78;;;25.65;;
82635;SDS011;72317;37.280;-121.948;2023-08-31T13:50:29;41.75;;;25.88;;
82635;SDS011;72317;37.280;-121.948;2023-08-31T13:52:56;40.35;;;25.55;;
82635;SDS011;72317;37.280;-121.948;2023-08-31T13:55:22;40.53;;;25.60;;
82635;SDS011;72317;37.280;-121.948;2023-08-31T13:57:49;38.72;;;25.00;;
82635;SDS011;72317;37.280;-121.948;2023-08-31T14:00:15;40.60;;;25.55;;